If you wish to contribute or participate in the discussions about articles you are invited to join SKYbrary as a registered user

 Actions

St Catherine International Airport

From SKYbrary Wiki

HESC
Airport
ICAO: HESC – IATA: SKV
Summary
Name St Catherine International Airport
Region Africa
Territory Egypt EG.gif
Location St. Catherine, Janub Sina'
Serving St. Catherine
Elevation 1,331.366 m
4,368 ft
4,368 ft1,331.366 m
Type medium airport
Coordinates 28° 41' 7.00" N, 34° 3' 45.00" E
Runways
Designator Length Width Surface ROPS
17/35 2115 m6,938.976 ft
36 m118.11 ft
ASP /


METAR
Observation HESC 111000Z 02006KT CAVOK 17/M03 Q1020 NOSIG
Station ST CATHERINE
Date/Time 11 April 2019 10:00:00
Wind direction 20°
Wind speed 06 kts
Lowest cloud amount clouds and visibility OK
Temperature 17°C
Dew point
Humidity 25%
QNH 1020 hPa
Weather condition n/a

Maps

Terrain

Loading map...

Airport Layout

Loading map...


Accidents & Serious Incidents at or in vicinity of HESC

None on SKYbrary